ydylm.com alexa rank chart, ydylm.com alexa rank daily changes

ydylm.com alexa rank chart, ydylm.com alexa rank daily changes

ydylm.com
Actual rank:
373 104

RANK HISTORY

Date Rank Diff
2017/06/24 373 104 -55
2017/06/23 373 159 +1 385
2017/06/22 371 774 +1 735
2017/06/21 370 039 +735
2017/06/20 369 304 -1 571
2017/06/19 370 875 -1 529
2017/06/18 372 404 -56 400
2017/06/17 428 804 -1 510
2017/06/16 430 314 +1 428
2017/06/15 428 886 -59 457
2017/06/14 488 343 +105 661
2017/06/13 382 682 -1 303
2017/06/12 383 985 -1 836
2017/06/11 385 821 -474
2017/06/10 386 295 -250
2017/06/09 386 545 +40 637
2017/06/08 345 908 +1 458
2017/06/07 344 450 -11 700
2017/06/06 356 150 -1 163
2017/06/05 357 313 -1 471
2017/06/04 358 784 +31 008
2017/06/03 327 776 +29 643
2017/06/02 298 133 +886
2017/06/01 297 247 +8 048
2017/05/31 289 199 +846
2017/05/30 288 353 +18 610
2017/05/29 269 743 -1 091
2017/05/28 270 834 -913
2017/05/27 271 747 -1 573
2017/05/26 273 320 -7 842
2017/05/25 281 162 +735
2017/05/24 280 427 +919
2017/05/23 279 508 -604
2017/05/22 280 112 -1 187
2017/05/21 281 299 -348
2017/05/20 281 647 -299
2017/05/19 281 946 -27
2017/05/18 281 973 +29 089
2017/05/17 252 884 +6 525
2017/05/16 246 359 -422
2017/05/15 246 781 +13 559
2017/05/14 233 222 -17 788
2017/05/13 251 010 +25 602
2017/05/12 225 408 +11 702
2017/05/11 213 706 +543
2017/05/10 213 163 +768
2017/05/09 212 395 -1 199
2017/05/08 213 594 -702
2017/05/07 214 296 -10 164
2017/05/06 224 460 -105
2017/05/05 224 565 -105
2017/05/04 224 670 -12 865
2017/05/03 237 535 -617
2017/05/02 238 152 -473
2017/05/01 238 625 +22 178
2017/04/30 216 447 -331
2017/04/29 216 778 -292
2017/04/28 217 070 +10 198
2017/04/27 206 872 -24 490
2017/04/26 231 362 -10 596
2017/04/25 241 958

WIDGET FOR YOUR SITE

DOMAINS WITH THE NEAREST RANK

Domain Rank
kineticvibe.com.ng 373 099
hondajet.com 373 100
climbbybike.com 373 101
wildhorde.com 373 102
sov5.cn 373 103
ydylm.com 373 104
rawsonproperties.co.za 373 105
mercedes-benz.hu 373 106
avtorem.info 373 107
tgx.es 373 108
bgasc.com 373 109

DOMAINS WITH THE NEAREST RANK BY TLD .com

Domain Rank
rootsbd.com 373 095
noblemarket2007.com 373 098
hondajet.com 373 100
climbbybike.com 373 101
wildhorde.com 373 102
ydylm.com 373 104
bgasc.com 373 109
puffpastry.com 373 111
crimeflare.com 373 114
synergywholesale.com 373 115
xn--kckadi2b3p9b0gb3gz706c.com 373 121